Capitol Logistics 209


KLAX
Los Angeles International Airport
Los Angeles, California, US
KMIA
Miami International Airport
Miami, Florida, US

Activity Log

Date Flight Route Aircraft Duration
05/08/2020 CPX209 DOTSS2 CNERY BLH J65 KOFFA J169 TFD J50 ELP J2 JCT J86 LEV Q102 BAGGS SSCOT5 B763 4h 19m
04/23/2020 CPX209 TUSTI2 CNERY ZEBOL Q4 ELP J2 JCT J86 LEV Q102 BAGGS SSCOT5 B763 4h 29m
04/15/2020 CPX101 DOTSS2 CNERY BLH J65 KOFFA J169 TFD J50 ELP J2 JCT J86 LEV Q102 BAGGS SSCOT5 B77L 6h 00m
12/28/2019 CPX101 DOTSS2 CNERY BLH J65 KOFFA J169 TFD J50 ELP J2 JCT J86 LEV Q102 BAGGS SSCOT5 B744 4h 16m
11/04/2019 CPX101 DOTSS2 CNERY BLH J65 KOFFA J169 TFD J50 ELP J2 JCT J86 LEV Q102 BAGGS SSCOT5 B744 4h 48m
10/23/2019 CPX101 DOTSS2 CNERY BLH J65 KOFFA J169 TFD J50 ELP J2 JCT J86 LEV Q102 BAGGS SSCOT5 B744 4h 48m
10/16/2019 CPX209 DOTSS2 CNERY BLH J65 KOFFA J169 TFD J50 ELP J2 JCT J86 LEV Q102 BAGGS SSCOT5 B763 4h 42m
10/10/2019 CPX101 DOTSS2 CNERY BLH J65 KOFFA J169 TFD J50 ELP J2 JCT J86 LEV Q102 BAGGS SSCOT5 B744 4h 53m
07/19/2019 CPX209 DOTSS2 CNERY BLH J65 KOFFA J169 TFD J50 ELP J2 JCT J86 LEV Q102 BAGGS SSCOT5 B763 5h 00m
06/30/2019 CPX209 DOTSS2 CNERY BLH J65 KOFFA J169 TFD J50 ELP J2 JCT J86 LEV Q102 BAGGS SSCOT5 B763 4h 58m
05/09/2019 CPX101 DOTSS2 CNERY BLH J65 KOFFA J169 TFD J50 ALIBY J50 ELP J2 JCT J86 LEV Y290 BLVNS Y290 CIGAR Y290 BAGGS SSCOT5 B744 4h 11m
04/16/2019 CPX101 DOTSS2 CNERY BLH J65 KOFFA J169 TFD J50 ELP J2 JCT J86 LEV Q102 BAGGS SSCOT5 B744 5h 29m
01/10/2019 CPX103 TUSTI2 TUSTI V64 TRM J169 KOFFA BXK J184 EWM JCT J86 LEV Q102 CIGAR Y290 BAGGS SSCOT5 MD11 4h 29m
01/10/2019 CPX111 PNDAH2 TCATE IPL J2 GBN J50 ELP J86 LEV Y290 BAGGS SSCOT5 B763 4h 36m
12/27/2018 CPX109 DOTSS2 CNERY BLH J65 KOFFA J169 TFD J50 SSO/N0472F330 J50 ELP J2 JCT J86 LEV Q102 BAGGS SSCOT4 B763 4h 29m
11/15/2018 CPX111 DOTSS2 CNERY BLH J65 KOFFA J169 TFD J50 ELP J2 FST J2 JCT J86 LEV Y290 BLVNS Y290 BAGGS SSCOT5 MD11 4h 20m

Route Details

Aircraft Information
Primary: Boeing 767-300BDSF
Backup: Boeing 757-200SF
Route Data
Distance: 2091nm
Sched. Duration: 4h 45m
Avg. Duration: 4h 54m (+10m)
Times Flown: 16
Recm'd Route: DOTSS2 CNERY BLH J65 KOFFA J169 TFD J50 ELP J2 JCT J86 LEV Q102 BAGGS SSCOT5
Planned Altitude: 33,000ft
Origin Wx: KLAX 030153Z 26007KT 10SM FEW010 SCT150 BKN200 19/14 A2995 RMK AO2 SLP141 T01890144
Dest. Wx: KMIA 030202Z 10006KT 5SM -RA SCT023CB BKN037 OVC130 26/23 A3005 RMK AO2 CB NW MOV NW P0000 T02610233
Notes:

Financial History
Total Freight: 2,242,531lbs
Average Load: 140,158lbs/flt
Fuel Used: 1,191,931lbs
Avg. Fuel Used: 74,496lbs/flt
Fuel Expense: $1,411,976
Avg. Fuel Expense: $88,249
Avg. Fuel Cost: $1.18/lbs
Total Gross Income: $4,263,590
Pilot Pay: $2,954
Total Expenses: $461,300
Total Revenue: $2,373,847
Average Revenue: $266,474.35